sensor_id;sensor_type;location;lat;lon;timestamp;P1;durP1;ratioP1;P2;durP2;ratioP2
29764;SDS011;16667;-33.884;151.182;2022-07-23T00:02:30;11.43;;;4.82;;
29764;SDS011;16667;-33.884;151.182;2022-07-23T00:05:04;9.90;;;5.13;;
29764;SDS011;16667;-33.884;151.182;2022-07-23T00:07:35;11.07;;;5.20;;
29764;SDS011;16667;-33.884;151.182;2022-07-23T00:10:10;12.45;;;5.15;;
29764;SDS011;16667;-33.884;151.182;2022-07-23T00:12:41;11.30;;;5.43;;
29764;SDS011;16667;-33.884;151.182;2022-07-23T00:15:16;12.57;;;5.90;;
29764;SDS011;16667;-33.884;151.182;2022-07-23T00:17:47;9.48;;;5.38;;
29764;SDS011;16667;-33.884;151.182;2022-07-23T00:20:17;13.35;;;5.20;;
29764;SDS011;16667;-33.884;151.182;2022-07-23T00:22:51;12.50;;;5.22;;
29764;SDS011;16667;-33.884;151.182;2022-07-23T00:25:23;10.90;;;5.90;;
29764;SDS011;16667;-33.884;151.182;2022-07-23T00:27:57;10.20;;;6.20;;
29764;SDS011;16667;-33.884;151.182;2022-07-23T00:30:30;11.43;;;6.05;;
29764;SDS011;16667;-33.884;151.182;2022-07-23T00:33:02;11.38;;;6.50;;
29764;SDS011;16667;-33.884;151.182;2022-07-23T00:35:35;12.65;;;5.97;;
29764;SDS011;16667;-33.884;151.182;2022-07-23T00:38:07;12.13;;;6.15;;
29764;SDS011;16667;-33.884;151.182;2022-07-23T00:40:41;12.57;;;6.25;;
29764;SDS011;16667;-33.884;151.182;2022-07-23T00:43:14;14.07;;;5.30;;
29764;SDS011;16667;-33.884;151.182;2022-07-23T00:45:48;12.18;;;6.03;;
29764;SDS011;16667;-33.884;151.182;2022-07-23T00:48:18;12.17;;;5.50;;
29764;SDS011;16667;-33.884;151.182;2022-07-23T00:50:49;11.20;;;5.47;;
29764;SDS011;16667;-33.884;151.182;2022-07-23T00:53:26;11.45;;;5.28;;
29764;SDS011;16667;-33.884;151.182;2022-07-23T00:55:58;10.82;;;4.70;;
29764;SDS011;16667;-33.884;151.182;2022-07-23T00:58:29;13.93;;;4.80;;
29764;SDS011;16667;-33.884;151.182;2022-07-23T01:01:04;10.07;;;5.13;;
29764;SDS011;16667;-33.884;151.182;2022-07-23T01:03:35;11.85;;;5.30;;
29764;SDS011;16667;-33.884;151.182;2022-07-23T01:06:08;11.30;;;5.22;;
29764;SDS011;16667;-33.884;151.182;2022-07-23T01:08:39;14.18;;;5.47;;
29764;SDS011;16667;-33.884;151.182;2022-07-23T01:11:10;14.15;;;5.60;;
29764;SDS011;16667;-33.884;151.182;2022-07-23T01:13:43;11.82;;;5.22;;
29764;SDS011;16667;-33.884;151.182;2022-07-23T01:16:18;13.35;;;5.60;;
29764;SDS011;16667;-33.884;151.182;2022-07-23T01:18:48;11.90;;;4.78;;
29764;SDS011;16667;-33.884;151.182;2022-07-23T01:21:19;12.63;;;5.53;;
29764;SDS011;16667;-33.884;151.182;2022-07-23T01:23:57;12.35;;;5.30;;
29764;SDS011;16667;-33.884;151.182;2022-07-23T01:26:27;18.70;;;5.88;;
29764;SDS011;16667;-33.884;151.182;2022-07-23T01:29:01;11.23;;;5.20;;
29764;SDS011;16667;-33.884;151.182;2022-07-23T01:31:33;12.90;;;5.72;;
29764;SDS011;16667;-33.884;151.182;2022-07-23T01:34:04;12.88;;;5.60;;
29764;SDS011;16667;-33.884;151.182;2022-07-23T01:36:38;13.90;;;6.53;;
29764;SDS011;16667;-33.884;151.182;2022-07-23T01:39:15;13.80;;;6.33;;
29764;SDS011;16667;-33.884;151.182;2022-07-23T01:41:46;13.43;;;5.90;;
29764;SDS011;16667;-33.884;151.182;2022-07-23T01:44:19;12.40;;;6.13;;
29764;SDS011;16667;-33.884;151.182;2022-07-23T01:46:50;9.98;;;5.57;;
29764;SDS011;16667;-33.884;151.182;2022-07-23T01:49:24;8.35;;;5.15;;
29764;SDS011;16667;-33.884;151.182;2022-07-23T01:51:55;12.82;;;6.10;;
29764;SDS011;16667;-33.884;151.182;2022-07-23T01:54:31;12.80;;;5.30;;
29764;SDS011;16667;-33.884;151.182;2022-07-23T01:57:04;12.87;;;4.80;;
29764;SDS011;16667;-33.884;151.182;2022-07-23T02:00:24;9.07;;;3.70;;
29764;SDS011;16667;-33.884;151.182;2022-07-23T02:03:07;8.83;;;3.40;;
29764;SDS011;16667;-33.884;151.182;2022-07-23T02:05:37;8.23;;;3.57;;
29764;SDS011;16667;-33.884;151.182;2022-07-23T02:08:08;5.90;;;3.40;;
29764;SDS011;16667;-33.884;151.182;2022-07-23T02:10:41;6.97;;;3.50;;
29764;SDS011;16667;-33.884;151.182;2022-07-23T02:13:12;9.25;;;4.03;;
29764;SDS011;16667;-33.884;151.182;2022-07-23T02:15:55;6.70;;;3.80;;
29764;SDS011;16667;-33.884;151.182;2022-07-23T02:19:01;6.00;;;3.00;;
29764;SDS011;16667;-33.884;151.182;2022-07-23T02:21:33;7.07;;;2.72;;
29764;SDS011;16667;-33.884;151.182;2022-07-23T02:24:04;7.07;;;2.53;;
29764;SDS011;16667;-33.884;151.182;2022-07-23T02:26:39;7.10;;;2.90;;
29764;SDS011;16667;-33.884;151.182;2022-07-23T02:29:10;8.85;;;3.50;;
29764;SDS011;16667;-33.884;151.182;2022-07-23T02:31:41;5.43;;;2.10;;
29764;SDS011;16667;-33.884;151.182;2022-07-23T02:34:13;4.80;;;1.83;;
29764;SDS011;16667;-33.884;151.182;2022-07-23T02:36:45;6.50;;;2.05;;
29764;SDS011;16667;-33.884;151.182;2022-07-23T02:39:16;8.45;;;2.20;;
29764;SDS011;16667;-33.884;151.182;2022-07-23T02:41:51;7.70;;;1.80;;
29764;SDS011;16667;-33.884;151.182;2022-07-23T02:44:22;7.67;;;1.80;;
29764;SDS011;16667;-33.884;151.182;2022-07-23T02:46:52;7.60;;;1.90;;
29764;SDS011;16667;-33.884;151.182;2022-07-23T02:49:23;8.55;;;2.30;;
29764;SDS011;16667;-33.884;151.182;2022-07-23T02:55:03;7.37;;;1.83;;
29764;SDS011;16667;-33.884;151.182;2022-07-23T02:57:37;6.97;;;1.60;;
29764;SDS011;16667;-33.884;151.182;2022-07-23T03:00:08;2.80;;;1.30;;
29764;SDS011;16667;-33.884;151.182;2022-07-23T03:02:42;5.17;;;1.60;;
29764;SDS011;16667;-33.884;151.182;2022-07-23T03:05:13;7.20;;;1.88;;
29764;SDS011;16667;-33.884;151.182;2022-07-23T03:07:43;7.82;;;1.60;;
29764;SDS011;16667;-33.884;151.182;2022-07-23T03:10:14;4.55;;;0.90;;
29764;SDS011;16667;-33.884;151.182;2022-07-23T03:12:48;2.33;;;0.80;;
29764;SDS011;16667;-33.884;151.182;2022-07-23T03:15:19;3.97;;;0.70;;
29764;SDS011;16667;-33.884;151.182;2022-07-23T03:17:49;3.25;;;0.90;;
29764;SDS011;16667;-33.884;151.182;2022-07-23T03:20:20;3.80;;;0.50;;
29764;SDS011;16667;-33.884;151.182;2022-07-23T03:22:51;1.33;;;0.50;;
29764;SDS011;16667;-33.884;151.182;2022-07-23T03:25:22;2.25;;;0.40;;
29764;SDS011;16667;-33.884;151.182;2022-07-23T03:27:54;4.72;;;0.70;;
29764;SDS011;16667;-33.884;151.182;2022-07-23T03:30:25;3.90;;;0.70;;
29764;SDS011;16667;-33.884;151.182;2022-07-23T03:32:56;2.50;;;0.50;;
29764;SDS011;16667;-33.884;151.182;2022-07-23T03:35:27;2.13;;;0.50;;
29764;SDS011;16667;-33.884;151.182;2022-07-23T03:37:58;4.13;;;0.52;;
29764;SDS011;16667;-33.884;151.182;2022-07-23T03:40:28;1.65;;;0.55;;
29764;SDS011;16667;-33.884;151.182;2022-07-23T03:43:01;2.22;;;0.40;;
29764;SDS011;16667;-33.884;151.182;2022-07-23T03:45:34;2.17;;;0.50;;
29764;SDS011;16667;-33.884;151.182;2022-07-23T03:48:05;1.65;;;0.45;;
29764;SDS011;16667;-33.884;151.182;2022-07-23T03:50:39;2.67;;;0.50;;
29764;SDS011;16667;-33.884;151.182;2022-07-23T03:53:10;3.20;;;0.60;;
29764;SDS011;16667;-33.884;151.182;2022-07-23T03:55:41;2.75;;;0.68;;
29764;SDS011;16667;-33.884;151.182;2022-07-23T03:58:14;0.47;;;0.30;;
29764;SDS011;16667;-33.884;151.182;2022-07-23T04:00:52;1.20;;;0.30;;
29764;SDS011;16667;-33.884;151.182;2022-07-23T04:03:23;1.70;;;0.30;;
29764;SDS011;16667;-33.884;151.182;2022-07-23T04:05:53;1.80;;;0.30;;
29764;SDS011;16667;-33.884;151.182;2022-07-23T04:08:24;2.57;;;0.40;;
29764;SDS011;16667;-33.884;151.182;2022-07-23T04:10:56;1.65;;;0.35;;
29764;SDS011;16667;-33.884;151.182;2022-07-23T04:13:29;0.82;;;0.30;;
29764;SDS011;16667;-33.884;151.182;2022-07-23T04:16:00;2.03;;;0.40;;
29764;SDS011;16667;-33.884;151.182;2022-07-23T04:18:31;2.50;;;0.50;;
29764;SDS011;16667;-33.884;151.182;2022-07-23T04:21:02;1.55;;;0.50;;
29764;SDS011;16667;-33.884;151.182;2022-07-23T04:23:32;1.58;;;0.45;;
29764;SDS011;16667;-33.884;151.182;2022-07-23T04:26:03;1.77;;;0.50;;
29764;SDS011;16667;-33.884;151.182;2022-07-23T04:28:42;2.80;;;0.50;;
29764;SDS011;16667;-33.884;151.182;2022-07-23T04:31:18;2.00;;;0.35;;
29764;SDS011;16667;-33.884;151.182;2022-07-23T04:33:50;2.65;;;1.48;;
29764;SDS011;16667;-33.884;151.182;2022-07-23T04:36:26;2.78;;;0.95;;
29764;SDS011;16667;-33.884;151.182;2022-07-23T04:38:57;1.80;;;0.98;;
29764;SDS011;16667;-33.884;151.182;2022-07-23T04:41:28;2.67;;;0.63;;
29764;SDS011;16667;-33.884;151.182;2022-07-23T04:44:03;0.83;;;0.30;;
29764;SDS011;16667;-33.884;151.182;2022-07-23T04:46:34;2.33;;;0.60;;
29764;SDS011;16667;-33.884;151.182;2022-07-23T04:49:05;1.10;;;0.30;;
29764;SDS011;16667;-33.884;151.182;2022-07-23T04:51:35;2.63;;;0.47;;
29764;SDS011;16667;-33.884;151.182;2022-07-23T04:54:09;1.33;;;0.50;;
29764;SDS011;16667;-33.884;151.182;2022-07-23T04:56:41;1.33;;;0.60;;
29764;SDS011;16667;-33.884;151.182;2022-07-23T04:59:20;2.08;;;0.50;;
29764;SDS011;16667;-33.884;151.182;2022-07-23T05:01:52;1.02;;;0.50;;
29764;SDS011;16667;-33.884;151.182;2022-07-23T05:04:23;1.27;;;0.50;;
29764;SDS011;16667;-33.884;151.182;2022-07-23T05:06:57;5.38;;;0.57;;
29764;SDS011;16667;-33.884;151.182;2022-07-23T05:09:28;1.10;;;0.43;;
29764;SDS011;16667;-33.884;151.182;2022-07-23T05:11:58;3.15;;;0.57;;
29764;SDS011;16667;-33.884;151.182;2022-07-23T05:14:31;0.65;;;0.40;;
29764;SDS011;16667;-33.884;151.182;2022-07-23T05:17:02;2.25;;;0.60;;
29764;SDS011;16667;-33.884;151.182;2022-07-23T05:19:34;1.30;;;0.40;;
29764;SDS011;16667;-33.884;151.182;2022-07-23T05:22:04;1.13;;;0.40;;
29764;SDS011;16667;-33.884;151.182;2022-07-23T05:24:35;1.25;;;0.50;;
29764;SDS011;16667;-33.884;151.182;2022-07-23T05:27:09;2.80;;;0.55;;
29764;SDS011;16667;-33.884;151.182;2022-07-23T05:29:41;2.08;;;0.50;;
29764;SDS011;16667;-33.884;151.182;2022-07-23T05:32:12;2.15;;;0.50;;
29764;SDS011;16667;-33.884;151.182;2022-07-23T05:34:43;1.73;;;0.40;;
29764;SDS011;16667;-33.884;151.182;2022-07-23T05:37:14;2.30;;;0.60;;
29764;SDS011;16667;-33.884;151.182;2022-07-23T05:39:45;0.63;;;0.40;;
29764;SDS011;16667;-33.884;151.182;2022-07-23T05:42:15;1.52;;;0.60;;
29764;SDS011;16667;-33.884;151.182;2022-07-23T05:44:51;2.95;;;0.45;;
29764;SDS011;16667;-33.884;151.182;2022-07-23T05:47:21;1.10;;;0.40;;
29764;SDS011;16667;-33.884;151.182;2022-07-23T05:49:52;1.75;;;0.50;;
29764;SDS011;16667;-33.884;151.182;2022-07-23T05:52:23;2.45;;;0.50;;
29764;SDS011;16667;-33.884;151.182;2022-07-23T05:54:54;2.28;;;0.50;;
29764;SDS011;16667;-33.884;151.182;2022-07-23T05:57:25;1.33;;;0.50;;
29764;SDS011;16667;-33.884;151.182;2022-07-23T05:59:57;2.25;;;0.45;;
29764;SDS011;16667;-33.884;151.182;2022-07-23T06:02:28;0.80;;;0.40;;
29764;SDS011;16667;-33.884;151.182;2022-07-23T06:04:59;2.67;;;0.45;;
29764;SDS011;16667;-33.884;151.182;2022-07-23T06:07:30;0.98;;;0.32;;
29764;SDS011;16667;-33.884;151.182;2022-07-23T06:10:00;1.35;;;0.40;;
29764;SDS011;16667;-33.884;151.182;2022-07-23T06:12:31;2.17;;;0.47;;
29764;SDS011;16667;-33.884;151.182;2022-07-23T06:15:04;1.23;;;0.40;;
29764;SDS011;16667;-33.884;151.182;2022-07-23T06:17:36;0.77;;;0.40;;
29764;SDS011;16667;-33.884;151.182;2022-07-23T06:20:11;2.00;;;0.45;;
29764;SDS011;16667;-33.884;151.182;2022-07-23T06:22:43;4.70;;;0.50;;
29764;SDS011;16667;-33.884;151.182;2022-07-23T06:25:14;3.38;;;0.82;;
29764;SDS011;16667;-33.884;151.182;2022-07-23T06:27:46;4.30;;;0.90;;
29764;SDS011;16667;-33.884;151.182;2022-07-23T06:30:21;4.00;;;0.85;;
29764;SDS011;16667;-33.884;151.182;2022-07-23T06:32:52;6.57;;;2.92;;
29764;SDS011;16667;-33.884;151.182;2022-07-23T06:35:25;6.23;;;4.00;;
29764;SDS011;16667;-33.884;151.182;2022-07-23T06:37:59;8.18;;;3.80;;
29764;SDS011;16667;-33.884;151.182;2022-07-23T06:40:30;6.93;;;3.03;;
29764;SDS011;16667;-33.884;151.182;2022-07-23T06:43:03;6.00;;;2.90;;
29764;SDS011;16667;-33.884;151.182;2022-07-23T06:45:36;6.15;;;2.50;;
29764;SDS011;16667;-33.884;151.182;2022-07-23T06:48:10;6.13;;;2.45;;
29764;SDS011;16667;-33.884;151.182;2022-07-23T06:50:42;8.10;;;2.30;;
29764;SDS011;16667;-33.884;151.182;2022-07-23T06:53:12;7.22;;;2.35;;
29764;SDS011;16667;-33.884;151.182;2022-07-23T06:55:45;5.50;;;2.95;;
29764;SDS011;16667;-33.884;151.182;2022-07-23T06:58:16;7.95;;;2.95;;
29764;SDS011;16667;-33.884;151.182;2022-07-23T07:00:49;7.03;;;3.70;;
29764;SDS011;16667;-33.884;151.182;2022-07-23T07:03:23;6.38;;;3.30;;
29764;SDS011;16667;-33.884;151.182;2022-07-23T07:05:56;6.77;;;2.97;;
29764;SDS011;16667;-33.884;151.182;2022-07-23T07:08:30;11.60;;;3.27;;
29764;SDS011;16667;-33.884;151.182;2022-07-23T07:11:00;6.72;;;2.65;;
29764;SDS011;16667;-33.884;151.182;2022-07-23T07:13:31;7.00;;;2.70;;
29764;SDS011;16667;-33.884;151.182;2022-07-23T07:16:05;6.57;;;2.90;;
29764;SDS011;16667;-33.884;151.182;2022-07-23T07:18:36;6.60;;;2.80;;
29764;SDS011;16667;-33.884;151.182;2022-07-23T07:21:07;8.18;;;3.00;;
29764;SDS011;16667;-33.884;151.182;2022-07-23T07:23:38;8.75;;;3.30;;
29764;SDS011;16667;-33.884;151.182;2022-07-23T07:26:09;7.93;;;3.20;;
29764;SDS011;16667;-33.884;151.182;2022-07-23T07:28:39;7.18;;;3.08;;
29764;SDS011;16667;-33.884;151.182;2022-07-23T07:31:12;8.90;;;3.70;;
29764;SDS011;16667;-33.884;151.182;2022-07-23T07:33:43;8.07;;;3.45;;
29764;SDS011;16667;-33.884;151.182;2022-07-23T07:36:14;7.93;;;3.92;;
29764;SDS011;16667;-33.884;151.182;2022-07-23T07:38:45;7.50;;;4.15;;
29764;SDS011;16667;-33.884;151.182;2022-07-23T07:41:15;9.23;;;4.13;;
29764;SDS011;16667;-33.884;151.182;2022-07-23T07:43:50;8.57;;;4.13;;
29764;SDS011;16667;-33.884;151.182;2022-07-23T07:46:23;10.02;;;4.22;;
29764;SDS011;16667;-33.884;151.182;2022-07-23T07:48:53;9.20;;;3.65;;
29764;SDS011;16667;-33.884;151.182;2022-07-23T07:51:24;8.07;;;3.72;;
29764;SDS011;16667;-33.884;151.182;2022-07-23T07:53:56;7.03;;;3.00;;
29764;SDS011;16667;-33.884;151.182;2022-07-23T07:56:26;6.57;;;3.30;;
29764;SDS011;16667;-33.884;151.182;2022-07-23T07:58:59;9.02;;;3.65;;
29764;SDS011;16667;-33.884;151.182;2022-07-23T08:01:31;6.78;;;4.10;;
29764;SDS011;16667;-33.884;151.182;2022-07-23T08:04:02;9.17;;;3.90;;
29764;SDS011;16667;-33.884;151.182;2022-07-23T08:06:33;7.85;;;3.35;;
29764;SDS011;16667;-33.884;151.182;2022-07-23T08:09:04;8.27;;;3.50;;
29764;SDS011;16667;-33.884;151.182;2022-07-23T08:11:35;9.70;;;3.58;;
29764;SDS011;16667;-33.884;151.182;2022-07-23T08:14:08;6.68;;;3.38;;
29764;SDS011;16667;-33.884;151.182;2022-07-23T08:16:40;11.47;;;4.23;;
29764;SDS011;16667;-33.884;151.182;2022-07-23T08:19:13;10.65;;;4.13;;
29764;SDS011;16667;-33.884;151.182;2022-07-23T08:21:44;10.13;;;4.55;;
29764;SDS011;16667;-33.884;151.182;2022-07-23T08:24:20;10.45;;;4.63;;
29764;SDS011;16667;-33.884;151.182;2022-07-23T08:26:50;9.52;;;5.28;;
29764;SDS011;16667;-33.884;151.182;2022-07-23T08:29:21;11.00;;;5.50;;
29764;SDS011;16667;-33.884;151.182;2022-07-23T08:31:54;10.15;;;5.50;;
29764;SDS011;16667;-33.884;151.182;2022-07-23T08:34:27;9.82;;;5.47;;
29764;SDS011;16667;-33.884;151.182;2022-07-23T08:36:59;11.95;;;5.82;;
29764;SDS011;16667;-33.884;151.182;2022-07-23T08:39:30;10.60;;;5.50;;
29764;SDS011;16667;-33.884;151.182;2022-07-23T08:42:01;12.13;;;5.85;;
29764;SDS011;16667;-33.884;151.182;2022-07-23T08:44:33;10.30;;;5.10;;
29764;SDS011;16667;-33.884;151.182;2022-07-23T08:47:09;13.30;;;5.55;;
29764;SDS011;16667;-33.884;151.182;2022-07-23T08:49:40;9.27;;;4.38;;
29764;SDS011;16667;-33.884;151.182;2022-07-23T08:52:14;11.90;;;4.68;;
29764;SDS011;16667;-33.884;151.182;2022-07-23T08:54:48;8.50;;;4.57;;
29764;SDS011;16667;-33.884;151.182;2022-07-23T08:57:22;10.98;;;4.63;;
29764;SDS011;16667;-33.884;151.182;2022-07-23T08:59:53;10.27;;;4.93;;
29764;SDS011;16667;-33.884;151.182;2022-07-23T09:02:29;11.38;;;5.30;;
29764;SDS011;16667;-33.884;151.182;2022-07-23T09:05:00;11.55;;;5.50;;
29764;SDS011;16667;-33.884;151.182;2022-07-23T09:07:30;17.92;;;6.32;;
29764;SDS011;16667;-33.884;151.182;2022-07-23T09:10:08;15.52;;;8.63;;
29764;SDS011;16667;-33.884;151.182;2022-07-23T09:12:39;14.77;;;8.87;;
29764;SDS011;16667;-33.884;151.182;2022-07-23T09:15:10;13.27;;;7.83;;
29764;SDS011;16667;-33.884;151.182;2022-07-23T09:17:43;14.40;;;7.10;;
29764;SDS011;16667;-33.884;151.182;2022-07-23T09:20:15;12.40;;;7.35;;
29764;SDS011;16667;-33.884;151.182;2022-07-23T09:22:46;12.75;;;7.50;;
29764;SDS011;16667;-33.884;151.182;2022-07-23T09:25:20;13.18;;;7.63;;
29764;SDS011;16667;-33.884;151.182;2022-07-23T09:27:52;15.15;;;9.57;;
29764;SDS011;16667;-33.884;151.182;2022-07-23T09:30:24;18.85;;;9.55;;
29764;SDS011;16667;-33.884;151.182;2022-07-23T09:33:07;17.27;;;9.40;;
29764;SDS011;16667;-33.884;151.182;2022-07-23T09:35:46;20.27;;;10.10;;
29764;SDS011;16667;-33.884;151.182;2022-07-23T09:38:18;22.20;;;9.20;;
29764;SDS011;16667;-33.884;151.182;2022-07-23T09:43:39;13.13;;;9.13;;
29764;SDS011;16667;-33.884;151.182;2022-07-23T09:46:20;18.27;;;9.82;;
29764;SDS011;16667;-33.884;151.182;2022-07-23T09:48:53;14.77;;;9.50;;
29764;SDS011;16667;-33.884;151.182;2022-07-23T09:51:43;18.50;;;9.88;;
29764;SDS011;16667;-33.884;151.182;2022-07-23T09:54:21;14.73;;;9.30;;
29764;SDS011;16667;-33.884;151.182;2022-07-23T09:56:57;16.23;;;9.85;;
29764;SDS011;16667;-33.884;151.182;2022-07-23T09:59:30;18.38;;;11.27;;
29764;SDS011;16667;-33.884;151.182;2022-07-23T10:02:05;17.90;;;11.02;;
29764;SDS011;16667;-33.884;151.182;2022-07-23T10:04:38;19.13;;;11.70;;
29764;SDS011;16667;-33.884;151.182;2022-07-23T10:07:10;19.58;;;11.43;;
29764;SDS011;16667;-33.884;151.182;2022-07-23T10:09:44;17.13;;;10.90;;
29764;SDS011;16667;-33.884;151.182;2022-07-23T10:12:20;16.80;;;11.13;;
29764;SDS011;16667;-33.884;151.182;2022-07-23T10:15:04;17.63;;;11.70;;
29764;SDS011;16667;-33.884;151.182;2022-07-23T10:17:35;16.25;;;11.10;;
29764;SDS011;16667;-33.884;151.182;2022-07-23T10:20:09;20.40;;;10.87;;
29764;SDS011;16667;-33.884;151.182;2022-07-23T10:22:44;18.30;;;11.45;;
29764;SDS011;16667;-33.884;151.182;2022-07-23T10:25:34;15.95;;;11.50;;
29764;SDS011;16667;-33.884;151.182;2022-07-23T10:28:15;24.48;;;13.27;;
29764;SDS011;16667;-33.884;151.182;2022-07-23T10:31:00;23.33;;;12.80;;
29764;SDS011;16667;-33.884;151.182;2022-07-23T10:33:41;29.58;;;16.30;;
29764;SDS011;16667;-33.884;151.182;2022-07-23T10:36:27;31.70;;;16.67;;
29764;SDS011;16667;-33.884;151.182;2022-07-23T10:39:08;27.33;;;16.77;;
29764;SDS011;16667;-33.884;151.182;2022-07-23T10:41:44;23.10;;;15.88;;
29764;SDS011;16667;-33.884;151.182;2022-07-23T10:44:15;26.73;;;16.27;;
29764;SDS011;16667;-33.884;151.182;2022-07-23T10:47:00;25.83;;;15.60;;
29764;SDS011;16667;-33.884;151.182;2022-07-23T10:49:50;26.33;;;16.33;;
29764;SDS011;16667;-33.884;151.182;2022-07-23T10:52:26;23.00;;;14.63;;
29764;SDS011;16667;-33.884;151.182;2022-07-23T10:55:38;23.80;;;15.13;;
29764;SDS011;16667;-33.884;151.182;2022-07-23T10:58:04;21.30;;;15.40;;
29764;SDS011;16667;-33.884;151.182;2022-07-23T11:00:38;22.52;;;14.05;;
29764;SDS011;16667;-33.884;151.182;2022-07-23T11:06:05;20.45;;;13.73;;
29764;SDS011;16667;-33.884;151.182;2022-07-23T11:08:37;21.20;;;14.65;;
29764;SDS011;16667;-33.884;151.182;2022-07-23T11:11:09;21.52;;;13.52;;
29764;SDS011;16667;-33.884;151.182;2022-07-23T11:13:49;21.57;;;16.07;;
29764;SDS011;16667;-33.884;151.182;2022-07-23T11:16:23;25.25;;;18.13;;
29764;SDS011;16667;-33.884;151.182;2022-07-23T11:18:57;25.63;;;18.98;;
29764;SDS011;16667;-33.884;151.182;2022-07-23T11:21:45;22.58;;;17.75;;
29764;SDS011;16667;-33.884;151.182;2022-07-23T11:24:25;21.05;;;15.25;;
29764;SDS011;16667;-33.884;151.182;2022-07-23T11:27:02;22.08;;;15.80;;
29764;SDS011;16667;-33.884;151.182;2022-07-23T11:29:43;24.15;;;16.70;;
29764;SDS011;16667;-33.884;151.182;2022-07-23T11:32:27;24.30;;;16.42;;
29764;SDS011;16667;-33.884;151.182;2022-07-23T11:35:00;28.95;;;18.40;;
29764;SDS011;16667;-33.884;151.182;2022-07-23T11:37:35;21.45;;;13.52;;
29764;SDS011;16667;-33.884;151.182;2022-07-23T11:40:10;19.48;;;13.63;;
29764;SDS011;16667;-33.884;151.182;2022-07-23T11:42:51;16.88;;;11.80;;
29764;SDS011;16667;-33.884;151.182;2022-07-23T11:45:24;17.95;;;12.77;;
29764;SDS011;16667;-33.884;151.182;2022-07-23T11:48:06;15.98;;;11.32;;
29764;SDS011;16667;-33.884;151.182;2022-07-23T11:50:44;16.90;;;12.20;;
29764;SDS011;16667;-33.884;151.182;2022-07-23T11:53:24;17.20;;;11.80;;
29764;SDS011;16667;-33.884;151.182;2022-07-23T11:56:04;14.43;;;11.15;;
29764;SDS011;16667;-33.884;151.182;2022-07-23T11:58:36;17.37;;;11.73;;
29764;SDS011;16667;-33.884;151.182;2022-07-23T12:01:08;16.77;;;10.43;;
29764;SDS011;16667;-33.884;151.182;2022-07-23T12:03:48;16.80;;;11.32;;
29764;SDS011;16667;-33.884;151.182;2022-07-23T12:06:19;17.13;;;11.90;;
29764;SDS011;16667;-33.884;151.182;2022-07-23T12:08:50;17.98;;;11.65;;
29764;SDS011;16667;-33.884;151.182;2022-07-23T12:11:22;17.38;;;11.05;;
29764;SDS011;16667;-33.884;151.182;2022-07-23T12:13:56;16.60;;;10.70;;
29764;SDS011;16667;-33.884;151.182;2022-07-23T12:16:28;18.45;;;11.63;;
29764;SDS011;16667;-33.884;151.182;2022-07-23T12:18:59;13.82;;;10.75;;
29764;SDS011;16667;-33.884;151.182;2022-07-23T12:21:33;18.13;;;12.05;;
29764;SDS011;16667;-33.884;151.182;2022-07-23T12:24:07;18.83;;;12.25;;
29764;SDS011;16667;-33.884;151.182;2022-07-23T12:27:05;15.75;;;12.25;;
29764;SDS011;16667;-33.884;151.182;2022-07-23T12:29:40;16.92;;;11.90;;
29764;SDS011;16667;-33.884;151.182;2022-07-23T12:32:20;15.50;;;11.32;;
29764;SDS011;16667;-33.884;151.182;2022-07-23T12:35:02;16.67;;;10.88;;
29764;SDS011;16667;-33.884;151.182;2022-07-23T12:37:34;14.23;;;10.38;;
29764;SDS011;16667;-33.884;151.182;2022-07-23T12:40:20;16.98;;;11.35;;
29764;SDS011;16667;-33.884;151.182;2022-07-23T12:42:55;19.83;;;11.43;;
29764;SDS011;16667;-33.884;151.182;2022-07-23T12:45:27;18.23;;;11.88;;
29764;SDS011;16667;-33.884;151.182;2022-07-23T12:48:20;16.23;;;11.75;;
29764;SDS011;16667;-33.884;151.182;2022-07-23T12:50:53;16.80;;;12.32;;
29764;SDS011;16667;-33.884;151.182;2022-07-23T12:53:26;15.07;;;12.07;;
29764;SDS011;16667;-33.884;151.182;2022-07-23T12:55:59;21.00;;;12.43;;
29764;SDS011;16667;-33.884;151.182;2022-07-23T12:58:43;18.37;;;13.57;;
29764;SDS011;16667;-33.884;151.182;2022-07-23T13:01:30;19.53;;;12.90;;
29764;SDS011;16667;-33.884;151.182;2022-07-23T13:04:04;22.70;;;13.07;;
29764;SDS011;16667;-33.884;151.182;2022-07-23T13:06:37;17.38;;;12.10;;
29764;SDS011;16667;-33.884;151.182;2022-07-23T13:09:09;19.58;;;12.90;;
29764;SDS011;16667;-33.884;151.182;2022-07-23T13:11:41;18.52;;;13.27;;
29764;SDS011;16667;-33.884;151.182;2022-07-23T13:14:15;19.27;;;13.02;;
29764;SDS011;16667;-33.884;151.182;2022-07-23T13:16:49;19.70;;;13.13;;
29764;SDS011;16667;-33.884;151.182;2022-07-23T13:19:21;20.73;;;13.17;;
29764;SDS011;16667;-33.884;151.182;2022-07-23T13:21:52;16.85;;;12.20;;
29764;SDS011;16667;-33.884;151.182;2022-07-23T13:24:23;20.85;;;13.77;;
29764;SDS011;16667;-33.884;151.182;2022-07-23T13:26:54;20.33;;;13.40;;
29764;SDS011;16667;-33.884;151.182;2022-07-23T13:29:28;15.75;;;12.80;;
29764;SDS011;16667;-33.884;151.182;2022-07-23T13:31:59;24.27;;;12.98;;
29764;SDS011;16667;-33.884;151.182;2022-07-23T13:34:29;17.67;;;12.98;;
29764;SDS011;16667;-33.884;151.182;2022-07-23T13:37:00;17.25;;;12.85;;
29764;SDS011;16667;-33.884;151.182;2022-07-23T13:39:31;23.13;;;14.10;;
29764;SDS011;16667;-33.884;151.182;2022-07-23T13:42:01;21.83;;;13.95;;
29764;SDS011;16667;-33.884;151.182;2022-07-23T13:44:34;23.52;;;13.68;;
29764;SDS011;16667;-33.884;151.182;2022-07-23T13:47:05;21.23;;;13.33;;
29764;SDS011;16667;-33.884;151.182;2022-07-23T13:49:36;18.30;;;12.97;;
29764;SDS011;16667;-33.884;151.182;2022-07-23T13:52:06;23.15;;;13.57;;
29764;SDS011;16667;-33.884;151.182;2022-07-23T13:54:37;21.02;;;12.55;;
29764;SDS011;16667;-33.884;151.182;2022-07-23T13:57:08;19.25;;;13.10;;
29764;SDS011;16667;-33.884;151.182;2022-07-23T13:59:43;20.65;;;13.13;;
29764;SDS011;16667;-33.884;151.182;2022-07-23T14:02:13;17.02;;;12.93;;
29764;SDS011;16667;-33.884;151.182;2022-07-23T14:04:46;17.50;;;12.40;;
29764;SDS011;16667;-33.884;151.182;2022-07-23T14:07:17;17.65;;;12.15;;
29764;SDS011;16667;-33.884;151.182;2022-07-23T14:09:48;21.65;;;12.38;;
29764;SDS011;16667;-33.884;151.182;2022-07-23T14:12:19;17.38;;;12.13;;
29764;SDS011;16667;-33.884;151.182;2022-07-23T14:14:51;21.40;;;13.02;;
29764;SDS011;16667;-33.884;151.182;2022-07-23T14:17:22;17.70;;;12.10;;
29764;SDS011;16667;-33.884;151.182;2022-07-23T14:19:54;24.27;;;13.20;;
29764;SDS011;16667;-33.884;151.182;2022-07-23T14:22:25;20.33;;;12.43;;
29764;SDS011;16667;-33.884;151.182;2022-07-23T14:24:56;21.23;;;13.80;;
29764;SDS011;16667;-33.884;151.182;2022-07-23T14:27:27;24.60;;;14.47;;
29764;SDS011;16667;-33.884;151.182;2022-07-23T14:30:00;23.05;;;14.88;;
29764;SDS011;16667;-33.884;151.182;2022-07-23T14:32:31;20.02;;;13.50;;
29764;SDS011;16667;-33.884;151.182;2022-07-23T14:35:02;22.33;;;14.35;;
29764;SDS011;16667;-33.884;151.182;2022-07-23T14:37:35;21.15;;;13.75;;
29764;SDS011;16667;-33.884;151.182;2022-07-23T14:40:07;21.52;;;14.18;;
29764;SDS011;16667;-33.884;151.182;2022-07-23T14:42:38;21.40;;;13.75;;
29764;SDS011;16667;-33.884;151.182;2022-07-23T14:45:11;25.38;;;14.32;;